createdAt,value
2018-08-10T00:02:01.491Z,3.67
2018-08-10T00:04:31.866Z,3.40
2018-08-10T00:07:02.901Z,3.50
2018-08-10T00:09:31.929Z,2.90
2018-08-10T00:12:00.707Z,2.77
2018-08-10T00:14:29.958Z,3.40
2018-08-10T00:16:58.877Z,2.40
2018-08-10T00:19:28.092Z,4.03
2018-08-10T00:21:57.228Z,3.90
2018-08-10T00:24:26.161Z,3.60
2018-08-10T00:26:55.179Z,2.93
2018-08-10T00:29:23.999Z,2.10
2018-08-10T00:31:52.770Z,2.00
2018-08-10T00:34:21.599Z,1.67
2018-08-10T00:36:50.490Z,2.30
2018-08-10T00:39:19.443Z,1.53
2018-08-10T00:41:48.310Z,1.27
2018-08-10T00:44:17.238Z,2.17
2018-08-10T00:46:46.202Z,1.60
2018-08-10T00:49:15.160Z,1.67
2018-08-10T00:51:43.945Z,1.70
2018-08-10T00:54:15.153Z,1.40
2018-08-10T00:56:44.080Z,1.50
2018-08-10T00:59:13.094Z,1.50
2018-08-10T01:01:41.908Z,1.73
2018-08-10T01:04:10.690Z,1.93
2018-08-10T01:06:39.557Z,1.40
2018-08-10T01:09:10.883Z,1.57
2018-08-10T01:11:39.655Z,2.30
2018-08-10T01:14:08.908Z,2.00
2018-08-10T01:16:37.913Z,1.97
2018-08-10T01:19:06.709Z,2.03
2018-08-10T01:21:35.614Z,2.07
2018-08-10T01:24:04.368Z,1.90
2018-08-10T01:26:33.216Z,1.97
2018-08-10T01:29:01.985Z,2.17
2018-08-10T01:31:30.714Z,2.00
2018-08-10T01:33:59.439Z,3.10
2018-08-10T01:36:28.153Z,2.30
2018-08-10T01:38:57.041Z,2.10
2018-08-10T01:41:25.841Z,2.60
2018-08-10T01:43:54.729Z,3.50
2018-08-10T01:46:23.510Z,2.97
2018-08-10T01:48:52.202Z,2.67
2018-08-10T01:51:20.949Z,3.60
2018-08-10T01:53:49.645Z,2.43
2018-08-10T01:56:18.367Z,3.30
2018-08-10T01:58:47.025Z,3.00
2018-08-10T02:01:15.719Z,2.80
2018-08-10T02:03:44.528Z,3.17
2018-08-10T02:06:13.354Z,3.23
2018-08-10T02:08:42.114Z,3.17
2018-08-10T02:11:10.852Z,2.97
2018-08-10T02:13:39.645Z,3.17
2018-08-10T02:16:08.849Z,3.00
2018-08-10T02:18:37.514Z,2.97
2018-08-10T02:21:06.264Z,3.73
2018-08-10T02:23:35.106Z,4.60
2018-08-10T02:26:04.083Z,4.07
2018-08-10T02:28:32.857Z,3.40
2018-08-10T02:31:01.608Z,3.87
2018-08-10T02:33:30.408Z,4.87
2018-08-10T02:35:59.253Z,4.13
2018-08-10T02:38:28.034Z,4.23
2018-08-10T02:40:56.813Z,5.00
2018-08-10T02:43:25.486Z,5.27
2018-08-10T02:45:54.301Z,6.10
2018-08-10T02:48:23.034Z,4.80
2018-08-10T02:50:55.481Z,4.23
2018-08-10T02:53:24.290Z,4.43
2018-08-10T02:55:53.105Z,3.57
2018-08-10T02:58:21.838Z,3.73
2018-08-10T03:00:50.560Z,3.13
2018-08-10T03:03:19.335Z,4.30
2018-08-10T03:05:48.176Z,2.93
2018-08-10T03:08:16.822Z,3.03
2018-08-10T03:10:45.809Z,2.43
2018-08-10T03:13:14.634Z,3.03
2018-08-10T03:15:43.354Z,3.10
2018-08-10T03:18:12.182Z,4.10
2018-08-10T03:20:40.957Z,3.07
2018-08-10T03:23:09.715Z,3.60
2018-08-10T03:25:38.510Z,2.83
2018-08-10T03:28:07.286Z,2.90
2018-08-10T03:30:36.072Z,2.73
2018-08-10T03:33:04.933Z,2.80
2018-08-10T03:35:33.652Z,2.60
2018-08-10T03:38:02.327Z,2.40
2018-08-10T03:40:31.177Z,3.30
2018-08-10T03:42:59.928Z,3.50
2018-08-10T03:45:28.800Z,2.17
2018-08-10T03:47:57.567Z,2.70
2018-08-10T03:50:26.343Z,3.27
2018-08-10T03:52:55.082Z,2.43
2018-08-10T03:55:23.832Z,2.30
2018-08-10T03:57:52.472Z,3.57
2018-08-10T04:00:21.274Z,2.47
2018-08-10T04:02:49.954Z,2.33
2018-08-10T04:05:18.617Z,2.20
2018-08-10T04:07:47.421Z,3.43
2018-08-10T04:10:16.129Z,2.97
2018-08-10T04:12:44.932Z,2.87
2018-08-10T04:15:14.521Z,3.10
2018-08-10T04:17:43.543Z,2.43
2018-08-10T04:20:12.350Z,3.20
2018-08-10T04:22:41.252Z,3.10
2018-08-10T04:25:10.155Z,3.57
2018-08-10T04:27:39.061Z,3.23
2018-08-10T04:30:09.241Z,2.93
2018-08-10T04:32:37.981Z,3.70
2018-08-10T04:35:06.897Z,3.20
2018-08-10T04:37:35.776Z,3.63
2018-08-10T04:40:05.612Z,4.47
2018-08-10T04:42:34.412Z,5.17
2018-08-10T04:45:03.761Z,3.30
2018-08-10T04:47:32.662Z,4.57
2018-08-10T04:50:01.528Z,4.47
2018-08-10T04:52:30.338Z,4.23
2018-08-10T04:54:59.158Z,4.17
2018-08-10T04:57:27.997Z,4.97
2018-08-10T04:59:56.759Z,5.00
2018-08-10T05:02:25.493Z,4.57
2018-08-10T05:04:54.349Z,6.03
2018-08-10T05:07:23.081Z,4.83
2018-08-10T05:09:51.992Z,5.73
2018-08-10T05:12:20.781Z,5.20
2018-08-10T05:14:49.638Z,4.70
2018-08-10T05:17:18.512Z,5.00
2018-08-10T05:19:47.377Z,5.00
2018-08-10T05:22:16.206Z,5.67
2018-08-10T05:24:45.102Z,6.03
2018-08-10T05:27:14.043Z,5.70
2018-08-10T05:29:42.925Z,6.67
2018-08-10T05:32:11.794Z,5.70
2018-08-10T05:34:40.565Z,6.93
2018-08-10T05:37:09.509Z,6.30
2018-08-10T05:39:38.359Z,5.80
2018-08-10T05:42:07.278Z,6.47
2018-08-10T05:44:36.052Z,7.20
2018-08-10T05:47:04.939Z,7.47
2018-08-10T05:49:33.790Z,6.53
2018-08-10T05:52:02.689Z,7.67
2018-08-10T05:54:31.533Z,6.17
2018-08-10T05:57:00.341Z,6.13
2018-08-10T05:59:29.210Z,5.63
2018-08-10T06:01:58.038Z,5.80
2018-08-10T06:04:26.841Z,5.07
2018-08-10T06:06:55.905Z,5.77
2018-08-10T06:09:24.678Z,5.03
2018-08-10T06:11:53.529Z,5.63
2018-08-10T06:14:22.370Z,5.07
2018-08-10T06:16:51.258Z,4.70
2018-08-10T06:19:20.197Z,5.37
2018-08-10T06:21:49.045Z,5.03
2018-08-10T06:24:25.290Z,4.67
2018-08-10T06:26:54.266Z,3.23
2018-08-10T06:29:23.108Z,4.40
2018-08-10T06:31:51.870Z,3.87
2018-08-10T06:34:20.790Z,3.30
2018-08-10T06:36:49.559Z,3.20
2018-08-10T06:39:18.477Z,3.20
2018-08-10T06:41:47.281Z,3.20
2018-08-10T06:44:16.086Z,3.40
2018-08-10T06:46:44.894Z,3.80
2018-08-10T06:49:13.645Z,3.90
2018-08-10T06:51:42.544Z,4.20
2018-08-10T06:54:32.074Z,3.40
2018-08-10T06:57:00.888Z,2.97
2018-08-10T06:59:29.741Z,4.07
2018-08-10T07:01:58.712Z,3.43
2018-08-10T07:04:29.576Z,3.57
2018-08-10T07:06:58.381Z,3.67
2018-08-10T07:09:27.276Z,6.60
2018-08-10T07:11:56.137Z,4.87
2018-08-10T07:14:25.410Z,3.57
2018-08-10T07:16:54.415Z,3.43
2018-08-10T07:19:23.391Z,4.10
2018-08-10T07:21:52.330Z,3.30
2018-08-10T07:24:25.695Z,3.03
2018-08-10T07:26:54.853Z,3.03
2018-08-10T07:29:30.684Z,3.73
2018-08-10T07:32:01.707Z,3.57
2018-08-10T07:34:30.849Z,3.63
2018-08-10T07:36:59.719Z,4.53
2018-08-10T07:39:28.557Z,2.80
2018-08-10T07:41:57.394Z,3.20
2018-08-10T07:44:39.806Z,2.77
2018-08-10T07:47:08.657Z,2.57
2018-08-10T07:49:40.737Z,3.07
2018-08-10T07:52:10.278Z,2.20
2018-08-10T07:54:59.945Z,3.20
2018-08-10T07:57:28.857Z,4.30
2018-08-10T07:59:57.949Z,5.87
2018-08-10T08:02:27.893Z,4.27
2018-08-10T08:05:00.570Z,3.00
2018-08-10T08:07:29.622Z,2.70
2018-08-10T08:09:58.605Z,3.80
2018-08-10T08:12:27.776Z,3.17
2018-08-10T08:15:06.189Z,2.73
2018-08-10T08:17:35.203Z,2.87
2018-08-10T08:20:04.782Z,3.60
2018-08-10T08:22:34.792Z,3.83
2018-08-10T08:25:09.217Z,2.97
2018-08-10T08:27:38.969Z,4.10
2018-08-10T08:30:10.357Z,3.80
2018-08-10T08:32:39.351Z,3.90
2018-08-10T08:35:09.189Z,4.30
2018-08-10T08:37:38.966Z,5.30
2018-08-10T08:40:19.129Z,3.40
2018-08-10T08:42:49.021Z,4.00
2018-08-10T08:45:40.899Z,4.13
2018-08-10T08:48:09.731Z,3.70
2018-08-10T08:50:41.556Z,2.57
2018-08-10T08:53:10.964Z,2.60
2018-08-10T08:56:02.310Z,3.70
2018-08-10T08:58:31.942Z,3.27
2018-08-10T09:01:01.508Z,3.40
2018-08-10T09:03:42.473Z,3.77
2018-08-10T09:06:11.367Z,2.80
2018-08-10T09:08:47.087Z,4.03
2018-08-10T09:11:16.739Z,3.43
2018-08-10T09:14:54.158Z,4.53
2018-08-10T09:17:23.037Z,5.30
2018-08-10T09:19:52.370Z,4.37
2018-08-10T09:22:21.510Z,3.80
2018-08-10T09:25:10.637Z,4.70
2018-08-10T09:27:39.344Z,4.17
2018-08-10T09:30:10.189Z,5.03
2018-08-10T09:32:40.850Z,6.60
2018-08-10T09:35:40.074Z,6.23
2018-08-10T09:38:10.394Z,10.10
2018-08-10T09:40:40.769Z,5.50
2018-08-10T09:43:13.238Z,8.17
2018-08-10T09:45:50.192Z,7.30
2018-08-10T09:48:19.197Z,6.70
2018-08-10T09:50:48.469Z,5.90
2018-08-10T09:54:27.596Z,7.90
2018-08-10T09:57:00.262Z,21.07
2018-08-10T09:59:30.297Z,4.60
2018-08-10T10:02:04.449Z,11.33
2018-08-10T10:04:35.598Z,5.83
2018-08-10T10:07:04.613Z,5.40
2018-08-10T10:09:33.653Z,5.70
2018-08-10T10:12:02.866Z,4.30
2018-08-10T10:14:31.827Z,4.23
2018-08-10T10:17:01.008Z,6.60
2018-08-10T10:19:29.843Z,5.30
2018-08-10T10:21:59.337Z,5.50
2018-08-10T10:24:28.637Z,4.70
2018-08-10T10:26:57.527Z,6.80
2018-08-10T10:29:26.433Z,7.80
2018-08-10T10:31:55.618Z,5.97
2018-08-10T10:34:25.752Z,5.57
2018-08-10T10:36:54.857Z,8.60
2018-08-10T10:39:24.499Z,8.20
2018-08-10T10:41:53.328Z,9.97
2018-08-10T10:44:22.909Z,3.37
2018-08-10T10:46:53.286Z,4.00
2018-08-10T10:49:22.027Z,3.80
2018-08-10T10:51:50.988Z,3.17
2018-08-10T10:54:20.027Z,2.73
2018-08-10T10:56:49.110Z,3.23
2018-08-10T10:59:17.829Z,2.73
2018-08-10T11:01:46.718Z,2.80
2018-08-10T11:04:16.211Z,2.93
2018-08-10T11:06:45.145Z,3.50
2018-08-10T11:09:14.419Z,3.13
2018-08-10T11:11:43.300Z,2.80
2018-08-10T11:14:12.194Z,3.40
2018-08-10T11:16:42.127Z,2.47
2018-08-10T11:19:12.406Z,2.70
2018-08-10T11:21:41.293Z,2.70
2018-08-10T11:24:10.284Z,2.27
2018-08-10T11:26:40.162Z,3.63
2018-08-10T11:29:09.010Z,2.80
2018-08-10T11:31:37.895Z,2.17
2018-08-10T11:34:07.569Z,2.23
2018-08-10T11:36:36.491Z,1.63
2018-08-10T11:39:09.373Z,2.80
2018-08-10T11:41:38.585Z,2.90
2018-08-10T11:44:09.512Z,2.47
2018-08-10T11:46:39.194Z,2.50
2018-08-10T11:49:08.045Z,2.40
2018-08-10T11:51:37.246Z,2.70
2018-08-10T11:54:06.274Z,2.20
2018-08-10T11:56:35.907Z,2.87
2018-08-10T11:59:05.198Z,3.33
2018-08-10T12:01:34.039Z,2.83
2018-08-10T12:04:03.274Z,3.27
2018-08-10T12:06:33.979Z,3.00
2018-08-10T12:09:02.938Z,2.87
2018-08-10T12:11:31.711Z,2.87
2018-08-10T12:14:00.715Z,2.43
2018-08-10T12:16:30.679Z,2.93
2018-08-10T12:18:59.534Z,3.53
2018-08-10T12:21:28.253Z,2.73
2018-08-10T12:23:57.237Z,3.30
2018-08-10T12:26:27.112Z,3.67
2018-08-10T12:28:56.059Z,3.23
2018-08-10T12:31:25.094Z,2.67
2018-08-10T12:33:54.048Z,3.73
2018-08-10T12:36:22.967Z,3.63
2018-08-10T12:38:52.249Z,4.00
2018-08-10T12:41:21.077Z,5.53
2018-08-10T12:43:50.024Z,3.07
2018-08-10T12:46:19.949Z,3.40
2018-08-10T12:48:48.856Z,2.60
2018-08-10T12:51:17.736Z,2.97
2018-08-10T12:53:46.672Z,2.83
2018-08-10T12:56:16.834Z,5.50
2018-08-10T12:58:46.064Z,3.00
2018-08-10T13:01:15.212Z,2.80
2018-08-10T13:03:44.096Z,3.43
2018-08-10T13:06:15.042Z,3.30
2018-08-10T13:08:44.213Z,2.23
2018-08-10T13:11:13.048Z,2.57
2018-08-10T13:13:41.915Z,2.57
2018-08-10T13:16:11.723Z,2.33
2018-08-10T13:18:40.686Z,2.50
2018-08-10T13:21:09.625Z,2.43
2018-08-10T13:23:38.459Z,2.40
2018-08-10T13:26:07.924Z,2.53
2018-08-10T13:28:36.796Z,2.13
2018-08-10T13:31:05.712Z,2.80
2018-08-10T13:33:34.577Z,3.50
2018-08-10T13:36:04.511Z,3.90
2018-08-10T13:38:33.469Z,3.17
2018-08-10T13:41:02.258Z,2.30
2018-08-10T13:43:31.204Z,2.60
2018-08-10T13:46:00.130Z,2.87
2018-08-10T13:48:28.985Z,8.57
2018-08-10T13:50:57.939Z,11.07
2018-08-10T13:53:26.862Z,3.33
2018-08-10T13:55:55.607Z,11.37
2018-08-10T13:58:24.772Z,2.60
2018-08-10T14:00:53.945Z,3.20
2018-08-10T14:03:22.925Z,2.73
2018-08-10T14:05:51.887Z,2.60
2018-08-10T14:08:20.926Z,3.03
2018-08-10T14:10:49.860Z,5.33
2018-08-10T14:13:18.725Z,5.97
2018-08-10T14:15:47.710Z,3.07
2018-08-10T14:18:16.658Z,3.10
2018-08-10T14:20:45.736Z,3.57
2018-08-10T14:23:14.837Z,2.47
2018-08-10T14:25:43.937Z,2.87
2018-08-10T14:28:20.899Z,2.87
2018-08-10T14:30:50.322Z,2.20
2018-08-10T14:33:19.560Z,3.30
2018-08-10T14:35:49.096Z,2.97
2018-08-10T14:38:22.790Z,2.93
2018-08-10T14:40:51.725Z,3.20
2018-08-10T14:43:20.949Z,2.23
2018-08-10T14:45:51.213Z,2.20
2018-08-10T14:48:22.272Z,2.67
2018-08-10T14:50:51.138Z,2.90
2018-08-10T14:53:20.065Z,2.80
2018-08-10T14:55:49.373Z,2.77
2018-08-10T14:58:19.589Z,2.97
2018-08-10T15:00:48.516Z,3.07
2018-08-10T15:03:17.438Z,2.93
2018-08-10T15:05:46.372Z,2.90
2018-08-10T15:08:15.280Z,2.37
2018-08-10T15:10:44.284Z,2.87
2018-08-10T15:13:13.148Z,3.13
2018-08-10T15:15:42.107Z,3.70
2018-08-10T15:18:13.044Z,2.80
2018-08-10T15:20:41.942Z,2.60
2018-08-10T15:23:10.872Z,2.50
2018-08-10T15:25:39.742Z,2.97
2018-08-10T15:28:08.629Z,3.83
2018-08-10T15:30:37.533Z,2.50
2018-08-10T15:33:10.060Z,2.17
2018-08-10T15:35:38.967Z,2.70
2018-08-10T15:38:07.946Z,2.93
2018-08-10T15:40:36.757Z,2.13
2018-08-10T15:43:05.765Z,2.90
2018-08-10T15:45:34.889Z,3.43
2018-08-10T15:48:04.829Z,3.10
2018-08-10T15:50:33.829Z,2.87
2018-08-10T15:53:06.354Z,3.13
2018-08-10T15:55:35.254Z,3.80
2018-08-10T15:58:05.426Z,3.60
2018-08-10T16:00:34.238Z,2.93
2018-08-10T16:03:03.411Z,3.50
2018-08-10T16:05:36.162Z,3.40
2018-08-10T16:08:07.473Z,2.53
2018-08-10T16:10:36.218Z,2.57
2018-08-10T16:13:08.458Z,2.80
2018-08-10T16:15:38.315Z,3.03
2018-08-10T16:18:09.457Z,2.40
2018-08-10T16:20:38.475Z,2.80
2018-08-10T16:23:07.757Z,2.73
2018-08-10T16:25:36.648Z,2.20
2018-08-10T16:28:08.261Z,3.10
2018-08-10T16:30:40.146Z,3.03
2018-08-10T16:33:09.393Z,2.30
2018-08-10T16:35:38.309Z,3.33
2018-08-10T16:38:07.409Z,3.40
2018-08-10T16:40:36.262Z,2.10
2018-08-10T16:43:05.171Z,2.57
2018-08-10T16:45:34.055Z,2.40
2018-08-10T16:48:03.998Z,2.60
2018-08-10T16:50:33.178Z,3.13
2018-08-10T16:53:02.229Z,2.83
2018-08-10T16:55:31.249Z,2.87
2018-08-10T16:58:00.106Z,2.80
2018-08-10T17:00:28.945Z,2.40
2018-08-10T17:02:57.958Z,2.97
2018-08-10T17:05:26.903Z,3.60
2018-08-10T17:07:57.383Z,2.47
2018-08-10T17:10:26.149Z,2.90
2018-08-10T17:12:55.031Z,2.57
2018-08-10T17:15:23.906Z,3.30
2018-08-10T17:17:54.873Z,2.30
2018-08-10T17:20:23.623Z,2.50
2018-08-10T17:22:52.531Z,2.33
2018-08-10T17:25:21.659Z,2.17
2018-08-10T17:27:51.467Z,3.13
2018-08-10T17:30:20.803Z,3.23
2018-08-10T17:32:49.856Z,3.13
2018-08-10T17:35:18.981Z,2.40
2018-08-10T17:37:48.969Z,3.37
2018-08-10T17:40:17.712Z,2.50
2018-08-10T17:42:46.869Z,2.07
2018-08-10T17:45:17.059Z,1.87
2018-08-10T17:47:45.945Z,3.00
2018-08-10T17:50:17.545Z,2.93
2018-08-10T17:52:48.325Z,2.50
2018-08-10T17:55:17.745Z,2.20
2018-08-10T17:57:46.577Z,2.47
2018-08-10T18:00:17.853Z,2.17
2018-08-10T18:02:47.166Z,2.47
2018-08-10T18:05:17.091Z,2.53
2018-08-10T18:07:46.181Z,2.80
2018-08-10T18:10:15.661Z,2.03
2018-08-10T18:12:45.009Z,2.60
2018-08-10T18:15:17.119Z,2.37
2018-08-10T18:17:46.365Z,2.27
2018-08-10T18:20:17.325Z,2.30
2018-08-10T18:22:47.615Z,2.87
2018-08-10T18:25:17.627Z,2.30
2018-08-10T18:27:46.841Z,2.00
2018-08-10T18:30:17.871Z,1.90
2018-08-10T18:32:47.201Z,2.27
2018-08-10T18:35:16.221Z,1.77
2018-08-10T18:37:45.677Z,2.60
2018-08-10T18:40:15.592Z,1.57
2018-08-10T18:42:45.617Z,1.97
2018-08-10T18:45:16.169Z,1.90
2018-08-10T18:47:45.440Z,1.83
2018-08-10T18:50:15.660Z,1.43
2018-08-10T18:52:44.685Z,1.73
2018-08-10T18:55:15.397Z,1.97
2018-08-10T18:57:44.361Z,2.40
2018-08-10T19:00:15.386Z,2.20
2018-08-10T19:02:44.532Z,1.73
2018-08-10T19:05:15.037Z,2.03
2018-08-10T19:07:44.631Z,1.53
2018-08-10T19:10:15.604Z,1.63
2018-08-10T19:12:44.580Z,1.90
2018-08-10T19:15:13.849Z,1.70
2018-08-10T19:17:43.084Z,1.30
2018-08-10T19:20:12.919Z,1.57
2018-08-10T19:22:41.728Z,2.50
2018-08-10T19:25:12.041Z,1.57
2018-08-10T19:27:40.925Z,2.60
2018-08-10T19:30:18.715Z,1.77
2018-08-10T19:32:48.348Z,1.77
2018-08-10T19:35:17.771Z,1.63
2018-08-10T19:37:46.612Z,2.10
2018-08-10T19:40:16.738Z,2.93
2018-08-10T19:42:45.787Z,2.17
2018-08-10T19:45:15.681Z,2.40
2018-08-10T19:47:44.674Z,2.33
2018-08-10T19:50:14.996Z,2.30
2018-08-10T19:52:44.218Z,1.57
2018-08-10T19:55:14.442Z,1.80
2018-08-10T19:57:43.233Z,2.70
2018-08-10T20:00:14.053Z,1.73
2018-08-10T20:02:43.155Z,1.47
2018-08-10T20:05:12.058Z,2.10
2018-08-10T20:07:40.783Z,1.77
2018-08-10T20:10:12.945Z,1.50
2018-08-10T20:12:41.946Z,1.90
2018-08-10T20:15:13.592Z,1.63
2018-08-10T20:17:42.836Z,2.10
2018-08-10T20:20:14.623Z,2.20
2018-08-10T20:22:43.885Z,2.20
2018-08-10T20:25:13.396Z,2.30
2018-08-10T20:27:42.297Z,2.30
2018-08-10T20:30:12.978Z,1.50
2018-08-10T20:32:41.849Z,1.63
2018-08-10T20:35:12.585Z,1.63
2018-08-10T20:37:42.144Z,1.87
2018-08-10T20:40:12.790Z,2.00
2018-08-10T20:42:41.722Z,2.40
2018-08-10T20:45:10.638Z,2.40
2018-08-10T20:47:39.381Z,1.30
2018-08-10T20:50:14.573Z,1.90
2018-08-10T20:52:43.730Z,2.17
2018-08-10T20:55:12.750Z,2.23
2018-08-10T20:57:41.585Z,1.90
2018-08-10T21:00:11.256Z,2.30
2018-08-10T21:02:41.457Z,1.50
2018-08-10T21:05:10.360Z,2.00
2018-08-10T21:07:39.269Z,2.07
2018-08-10T21:10:11.017Z,1.63
2018-08-10T21:12:40.433Z,2.00
2018-08-10T21:15:10.659Z,1.87
2018-08-10T21:17:39.945Z,1.40
2018-08-10T21:20:10.484Z,2.17
2018-08-10T21:22:39.322Z,2.00
2018-08-10T21:25:09.337Z,2.37
2018-08-10T21:27:38.627Z,2.30
2018-08-10T21:30:11.020Z,1.73
2018-08-10T21:32:39.902Z,2.20
2018-08-10T21:35:08.910Z,1.80
2018-08-10T21:37:37.766Z,2.07
2018-08-10T21:40:08.765Z,2.00
2018-08-10T21:42:37.954Z,1.50
2018-08-10T21:45:07.193Z,1.70
2018-08-10T21:47:36.353Z,1.93
2018-08-10T21:50:07.026Z,1.60
2018-08-10T21:52:36.129Z,2.00
2018-08-10T21:55:05.088Z,1.73
2018-08-10T21:57:34.164Z,2.23
2018-08-10T22:00:03.145Z,2.20
2018-08-10T22:02:32.065Z,2.00
2018-08-10T22:05:01.230Z,2.00
2018-08-10T22:07:29.944Z,1.90
2018-08-10T22:09:58.816Z,2.00
2018-08-10T22:12:27.864Z,1.83
2018-08-10T22:15:01.763Z,2.20
2018-08-10T22:17:35.736Z,1.87
2018-08-10T22:20:05.042Z,1.77
2018-08-10T22:22:34.190Z,2.70
2018-08-10T22:25:03.209Z,1.90
2018-08-10T22:27:32.012Z,2.50
2018-08-10T22:30:00.893Z,1.80
2018-08-10T22:32:29.745Z,2.50
2018-08-10T22:34:58.517Z,2.33
2018-08-10T22:37:27.758Z,1.73
2018-08-10T22:39:56.587Z,2.07
2018-08-10T22:42:25.517Z,2.10
2018-08-10T22:44:54.583Z,1.90
2018-08-10T22:47:23.484Z,2.13
2018-08-10T22:49:52.378Z,1.43
2018-08-10T22:52:21.496Z,2.30
2018-08-10T22:54:50.415Z,2.20
2018-08-10T22:57:19.337Z,2.20
2018-08-10T22:59:48.153Z,2.40
2018-08-10T23:02:16.900Z,2.00
2018-08-10T23:04:45.937Z,2.10
2018-08-10T23:07:14.796Z,2.47
2018-08-10T23:09:43.590Z,1.83
2018-08-10T23:12:12.394Z,1.83
2018-08-10T23:14:41.219Z,2.33
2018-08-10T23:17:10.092Z,1.87
2018-08-10T23:19:39.118Z,1.90
2018-08-10T23:22:08.298Z,1.47
2018-08-10T23:24:37.126Z,2.07
2018-08-10T23:27:05.990Z,1.90
2018-08-10T23:29:34.802Z,1.90
2018-08-10T23:32:03.802Z,1.87
2018-08-10T23:34:32.921Z,1.87
2018-08-10T23:37:01.606Z,2.10
2018-08-10T23:39:30.399Z,1.93
2018-08-10T23:41:59.280Z,2.57
2018-08-10T23:44:28.157Z,2.37
2018-08-10T23:46:57.329Z,2.40
2018-08-10T23:49:26.405Z,2.13
2018-08-10T23:51:55.209Z,2.70
2018-08-10T23:54:24.257Z,2.50
2018-08-10T23:56:53.161Z,1.93
2018-08-10T23:59:22.091Z,2.50
